Time;durP1;ratioP1;P1;durP2;ratioP2;P2;SDS_P1;SDS_P2;PMS_P1;PMS_P2;Temp;Humidity;BMP_temperature;BMP_pressure;BME280_temperature;BME280_humidity;BME280_pressure;Samples;Min_cycle;Max_cycle;Signal;HPM_P1;HPM_P2
2021/10/26 00:01:20;;;;;;;13.00;8.88;;;13.50;95.70;;;;;;5034952;28;20064;-74
2021/10/26 00:03:46;;;;;;;17.65;10.30;;;13.50;95.80;;;;;;5034497;28;20044;-73
2021/10/26 00:06:11;;;;;;;17.23;9.50;;;13.60;95.80;;;;;;5034608;28;20029;-74
2021/10/26 00:08:37;;;;;;;15.80;9.85;;;13.60;96.00;;;;;;5033228;28;20537;-74
2021/10/26 00:11:03;;;;;;;17.95;10.63;;;13.60;95.90;;;;;;5033067;28;20068;-74
2021/10/26 00:13:29;;;;;;;15.30;9.93;;;13.60;95.80;;;;;;5034180;28;20023;-74
2021/10/26 00:15:55;;;;;;;18.52;11.00;;;13.60;96.00;;;;;;5034745;28;20021;-74
2021/10/26 00:18:20;;;;;;;17.73;10.50;;;13.60;96.00;;;;;;5034050;28;20029;-74
2021/10/26 00:20:46;;;;;;;17.15;10.73;;;13.70;96.00;;;;;;5034234;28;20052;-75
2021/10/26 00:23:11;;;;;;;22.48;12.48;;;13.60;96.10;;;;;;5034585;28;20030;-74
2021/10/26 00:25:37;;;;;;;19.92;12.40;;;13.70;96.10;;;;;;5034248;28;20036;-74
2021/10/26 00:28:03;;;;;;;19.88;12.35;;;13.60;96.40;;;;;;5034547;28;20018;-75
2021/10/26 00:30:30;;;;;;;22.33;13.05;;;13.70;96.20;;;;;;5033843;28;20037;-74
2021/10/26 00:32:56;;;;;;;24.65;13.35;;;13.70;96.20;;;;;;5033053;28;20383;-74
2021/10/26 00:35:21;;;;;;;23.48;13.68;;;13.70;96.30;;;;;;5033887;28;20133;-74
2021/10/26 00:37:47;;;;;;;21.02;12.63;;;13.60;96.40;;;;;;5033833;28;20044;-74
2021/10/26 00:40:14;;;;;;;21.35;13.80;;;13.70;96.30;;;;;;5033887;28;20026;-74
2021/10/26 00:42:40;;;;;;;22.42;13.55;;;13.70;96.30;;;;;;5033907;28;20053;-74
2021/10/26 00:45:06;;;;;;;21.15;14.48;;;13.70;96.50;;;;;;5032668;28;20478;-74
2021/10/26 00:47:32;;;;;;;25.90;14.38;;;13.70;96.50;;;;;;5033782;28;20064;-73
2021/10/26 00:49:57;;;;;;;23.55;14.93;;;13.70;96.50;;;;;;5033965;28;20477;-74
2021/10/26 00:52:23;;;;;;;24.38;15.10;;;13.70;96.50;;;;;;5033972;28;20021;-73
2021/10/26 00:54:49;;;;;;;24.13;15.63;;;13.70;96.50;;;;;;5034362;28;20474;-74
2021/10/26 00:57:18;;;;;;;29.52;16.88;;;13.70;96.60;;;;;;5032704;28;20041;-74
2021/10/26 00:59:43;;;;;;;25.88;16.27;;;13.70;96.60;;;;;;5033612;28;20104;-73
2021/10/26 01:02:09;;;;;;;28.98;17.10;;;13.70;96.80;;;;;;5033418;28;20033;-73
2021/10/26 01:04:35;;;;;;;27.73;16.15;;;13.80;96.80;;;;;;5033197;28;20463;-73
2021/10/26 01:07:00;;;;;;;28.27;17.25;;;13.70;96.90;;;;;;5033973;28;20436;-73
2021/10/26 01:09:27;;;;;;;30.33;18.45;;;13.70;96.80;;;;;;5032338;28;20041;-73
2021/10/26 01:11:52;;;;;;;28.17;17.08;;;13.70;97.00;;;;;;5033212;28;20069;-73
2021/10/26 01:14:18;;;;;;;30.40;18.17;;;13.70;97.00;;;;;;5033531;28;20562;-73
2021/10/26 01:16:47;;;;;;;31.60;18.35;;;13.70;97.10;;;;;;5032215;28;20033;-72
2021/10/26 01:19:12;;;;;;;29.77;18.25;;;13.70;97.00;;;;;;5033767;28;20021;-73
2021/10/26 01:21:38;;;;;;;29.98;17.98;;;13.70;97.00;;;;;;5033182;28;20064;-74
2021/10/26 01:24:04;;;;;;;29.58;18.35;;;13.70;97.00;;;;;;5033017;28;20482;-73
2021/10/26 01:26:32;;;;;;;30.50;18.00;;;13.70;97.20;;;;;;5032859;28;20037;-73
2021/10/26 01:28:58;;;;;;;31.40;17.95;;;13.80;97.10;;;;;;5032989;28;20064;-74
2021/10/26 01:31:24;;;;;;;32.38;18.95;;;13.80;97.00;;;;;;5033552;28;20059;-75
2021/10/26 01:33:49;;;;;;;30.20;19.10;;;13.80;97.10;;;;;;5032168;28;20030;-73
2021/10/26 01:36:18;;;;;;;29.50;17.95;;;13.80;97.00;;;;;;5044450;28;20029;-73
2021/10/26 01:38:44;;;;;;;33.28;18.60;;;13.80;97.10;;;;;;5052698;28;20482;-74
2021/10/26 01:41:10;;;;;;;32.63;18.42;;;13.70;97.20;;;;;;5052741;28;20025;-74
2021/10/26 01:43:37;;;;;;;32.08;18.95;;;13.70;97.30;;;;;;5052882;28;20443;-75
2021/10/26 01:46:02;;;;;;;30.60;18.42;;;13.70;97.20;;;;;;5052924;28;20086;-74
2021/10/26 01:48:28;;;;;;;35.05;18.85;;;13.70;97.30;;;;;;5052588;28;20029;-73
2021/10/26 01:50:54;;;;;;;36.88;18.33;;;13.80;97.30;;;;;;5050887;28;20044;-74
2021/10/26 01:53:20;;;;;;;32.53;19.17;;;13.70;97.30;;;;;;5051367;28;20100;-74
2021/10/26 01:55:45;;;;;;;33.05;18.90;;;13.70;97.40;;;;;;5051257;28;20091;-74
2021/10/26 01:58:13;;;;;;;33.15;19.25;;;13.70;97.30;;;;;;5052954;28;20446;-73
2021/10/26 02:00:38;;;;;;;30.10;18.05;;;13.80;97.40;;;;;;5052296;28;20037;-74
2021/10/26 02:03:05;;;;;;;30.95;17.80;;;13.70;97.30;;;;;;5052119;28;20540;-74
2021/10/26 02:05:31;;;;;;;30.60;19.50;;;13.80;97.30;;;;;;5051047;28;20043;-72
2021/10/26 02:07:57;;;;;;;33.38;19.60;;;13.80;97.40;;;;;;5052051;28;20426;-72
2021/10/26 02:10:22;;;;;;;33.45;21.25;;;13.70;97.40;;;;;;5052381;28;20043;-72
2021/10/26 02:12:48;;;;;;;33.55;20.10;;;13.70;97.50;;;;;;5051801;28;20343;-73
2021/10/26 02:15:14;;;;;;;34.97;20.33;;;13.70;97.50;;;;;;5052125;28;20056;-73
2021/10/26 02:17:39;;;;;;;39.88;20.30;;;13.70;97.60;;;;;;5051811;28;20031;-74
2021/10/26 02:20:06;;;;;;;34.50;20.30;;;13.70;97.70;;;;;;5051928;28;20470;-72
2021/10/26 02:22:32;;;;;;;37.83;20.90;;;13.80;97.80;;;;;;5052006;28;20017;-74
2021/10/26 02:24:57;;;;;;;38.80;21.88;;;13.80;97.60;;;;;;5052087;28;20086;-74
2021/10/26 02:27:23;;;;;;;38.40;21.77;;;13.70;97.80;;;;;;5051903;28;20029;-74
2021/10/26 02:29:48;;;;;;;36.53;21.02;;;13.70;97.90;;;;;;5051752;28;20098;-74
2021/10/26 02:32:14;;;;;;;39.38;21.25;;;13.70;97.90;;;;;;5051668;28;20021;-75
2021/10/26 02:34:39;;;;;;;39.40;21.55;;;13.80;97.90;;;;;;5051699;28;20028;-73
2021/10/26 02:37:06;;;;;;;41.28;22.58;;;13.80;97.80;;;;;;5052127;28;20021;-74
2021/10/26 02:39:32;;;;;;;44.95;23.17;;;13.80;97.80;;;;;;5051969;28;20029;-75
2021/10/26 02:41:58;;;;;;;42.45;23.50;;;13.80;98.10;;;;;;5051581;28;20106;-75
2021/10/26 02:44:23;;;;;;;43.45;23.83;;;13.70;98.20;;;;;;5051761;28;20445;-75
2021/10/26 02:46:49;;;;;;;43.53;24.05;;;13.70;98.30;;;;;;5051553;28;20040;-75
2021/10/26 02:49:17;;;;;;;39.55;22.75;;;13.70;98.30;;;;;;5052160;28;20071;-76
2021/10/26 02:51:43;;;;;;;40.25;22.35;;;13.70;98.40;;;;;;5050132;28;20029;-74
2021/10/26 02:54:09;;;;;;;42.55;23.20;;;13.70;98.50;;;;;;5051407;28;20124;-73
2021/10/26 02:56:35;;;;;;;42.15;24.10;;;13.70;98.60;;;;;;5051243;28;20052;-75
2021/10/26 02:59:00;;;;;;;46.53;24.08;;;13.50;99.00;;;;;;5051740;28;20035;-75
2021/10/26 03:01:26;;;;;;;37.50;22.20;;;13.50;99.10;;;;;;5051752;28;20473;-76
2021/10/26 03:03:51;;;;;;;48.15;24.65;;;13.50;99.40;;;;;;5051133;28;20031;-75
2021/10/26 03:06:17;;;;;;;45.97;24.02;;;13.50;99.30;;;;;;5051124;28;20083;-75
2021/10/26 03:08:43;;;;;;;42.90;24.10;;;13.50;99.20;;;;;;5050315;28;20064;-75
2021/10/26 03:11:08;;;;;;;49.25;23.75;;;13.50;99.30;;;;;;5050014;28;20055;-75
2021/10/26 03:13:34;;;;;;;43.85;24.08;;;13.50;99.20;;;;;;5051468;28;20033;-75
2021/10/26 03:15:59;;;;;;;41.75;23.05;;;13.60;99.20;;;;;;5051889;28;20089;-75
2021/10/26 03:18:25;;;;;;;41.40;21.98;;;13.60;99.10;;;;;;5051282;28;20489;-74
2021/10/26 03:20:51;;;;;;;40.78;21.83;;;13.60;98.80;;;;;;5051067;28;20582;-74
2021/10/26 03:23:18;;;;;;;38.47;21.90;;;13.60;99.00;;;;;;5051544;28;20455;-73
2021/10/26 03:25:44;;;;;;;35.90;20.58;;;13.60;99.00;;;;;;5051293;28;20029;-74
2021/10/26 03:28:10;;;;;;;37.00;20.40;;;13.60;98.80;;;;;;5051627;28;20668;-74
2021/10/26 03:30:36;;;;;;;38.25;20.95;;;13.70;98.80;;;;;;5051334;28;20116;-73
2021/10/26 03:33:02;;;;;;;39.15;20.00;;;13.60;98.80;;;;;;5050980;28;20029;-74
2021/10/26 03:35:27;;;;;;;36.42;20.08;;;13.60;98.80;;;;;;5051219;28;20358;-74
2021/10/26 03:37:53;;;;;;;33.08;18.83;;;13.60;98.90;;;;;;5050990;28;20061;-74
2021/10/26 03:40:18;;;;;;;29.10;16.38;;;13.60;98.70;;;;;;5051547;28;20040;-74
2021/10/26 03:42:44;;;;;;;31.65;18.02;;;13.60;98.80;;;;;;5051245;28;20568;-74
2021/10/26 03:45:11;;;;;;;32.63;17.70;;;13.60;98.70;;;;;;5051099;28;20033;-75
2021/10/26 03:47:42;;;;;;;30.50;17.33;;;13.60;98.70;;;;;;5051250;28;20175;-73
2021/10/26 03:50:09;;;;;;;26.40;15.43;;;13.60;98.70;;;;;;5050971;28;20025;-73
2021/10/26 03:52:35;;;;;;;34.00;17.00;;;13.60;98.70;;;;;;5050851;28;20017;-73
2021/10/26 03:55:02;;;;;;;29.17;15.32;;;13.60;98.60;;;;;;5050286;28;20124;-73
2021/10/26 03:57:28;;;;;;;27.85;14.90;;;13.50;98.50;;;;;;5049883;28;20029;-73
2021/10/26 03:59:53;;;;;;;27.30;14.88;;;13.50;98.50;;;;;;5050817;28;20056;-74
2021/10/26 04:02:23;;;;;;;28.30;16.45;;;13.50;98.50;;;;;;5050897;28;20112;-73
2021/10/26 04:04:51;;;;;;;28.10;14.43;;;13.50;98.50;;;;;;5050957;28;20374;-74
2021/10/26 04:07:17;;;;;;;25.23;13.70;;;13.50;98.50;;;;;;5050003;28;20029;-74
2021/10/26 04:09:52;;;;;;;24.65;13.40;;;13.50;98.30;;;;;;5050784;28;20473;-74
2021/10/26 04:12:24;;;;;;;27.05;14.27;;;13.50;98.30;;;;;;5050463;28;20099;-74
2021/10/26 04:14:51;;;;;;;32.67;14.50;;;13.60;98.30;;;;;;5052222;28;20048;-74
2021/10/26 04:17:19;;;;;;;24.08;13.75;;;13.60;98.40;;;;;;5054285;28;20025;-74
2021/10/26 04:19:46;;;;;;;22.00;12.90;;;13.50;98.20;;;;;;5054386;28;20028;-75
2021/10/26 04:22:13;;;;;;;24.77;14.82;;;13.60;98.20;;;;;;5054658;28;20025;-75
2021/10/26 04:24:39;;;;;;;29.73;14.98;;;13.50;98.30;;;;;;5054243;28;20037;-74
2021/10/26 04:27:05;;;;;;;30.25;14.38;;;13.50;98.20;;;;;;5054074;28;20537;-74
2021/10/26 04:29:31;;;;;;;24.13;14.05;;;13.60;98.20;;;;;;5053008;28;20155;-74
2021/10/26 04:31:56;;;;;;;22.38;12.90;;;13.50;98.40;;;;;;5053843;28;20466;-75
2021/10/26 04:34:22;;;;;;;23.95;13.35;;;13.50;98.40;;;;;;5054260;28;20543;-74
2021/10/26 04:36:47;;;;;;;21.20;13.02;;;13.50;98.40;;;;;;5054199;28;20033;-74
2021/10/26 04:39:13;;;;;;;22.38;13.57;;;13.50;98.40;;;;;;5053859;28;20029;-73
2021/10/26 04:41:39;;;;;;;21.35;12.27;;;13.50;98.40;;;;;;5052664;28;20578;-75
2021/10/26 04:44:05;;;;;;;23.27;13.48;;;13.50;98.40;;;;;;5053545;28;20048;-73
2021/10/26 04:46:31;;;;;;;25.45;13.77;;;13.50;98.40;;;;;;5053705;28;20596;-74
2021/10/26 04:48:57;;;;;;;24.60;13.60;;;13.40;98.40;;;;;;5053885;28;20154;-73
2021/10/26 04:51:23;;;;;;;21.08;13.07;;;13.50;98.40;;;;;;5053550;28;20441;-75
2021/10/26 04:53:48;;;;;;;26.75;13.63;;;13.50;98.40;;;;;;5053656;28;20032;-75
2021/10/26 04:56:14;;;;;;;24.33;13.10;;;13.50;98.40;;;;;;5053404;28;20489;-75
2021/10/26 04:58:40;;;;;;;26.40;12.85;;;13.50;98.40;;;;;;5053408;28;20017;-73
2021/10/26 05:01:05;;;;;;;22.05;12.60;;;13.50;98.40;;;;;;5053780;28;20040;-75
2021/10/26 05:03:32;;;;;;;23.67;12.10;;;13.50;98.30;;;;;;5052526;28;20032;-78
2021/10/26 05:05:58;;;;;;;26.05;12.85;;;13.50;98.30;;;;;;5053044;28;20479;-75
2021/10/26 05:08:24;;;;;;;24.67;13.15;;;13.50;98.30;;;;;;5053468;28;20037;-76
2021/10/26 05:10:50;;;;;;;20.20;11.60;;;13.50;98.30;;;;;;5053319;28;20347;-74
2021/10/26 05:13:16;;;;;;;24.92;12.35;;;13.50;98.20;;;;;;5053733;28;20025;-75
2021/10/26 05:15:42;;;;;;;23.35;11.23;;;13.50;98.20;;;;;;5053715;28;20114;-76
2021/10/26 05:18:13;;;;;;;19.58;10.90;;;13.50;98.20;;;;;;5052084;28;20040;-76
2021/10/26 05:20:39;;;;;;;17.63;10.80;;;13.50;98.00;;;;;;5053348;28;20071;-76
2021/10/26 05:23:06;;;;;;;19.55;10.15;;;13.50;98.10;;;;;;5053310;28;20040;-76
2021/10/26 05:25:32;;;;;;;22.37;11.00;;;13.60;98.00;;;;;;5051206;28;20037;-76
2021/10/26 05:27:57;;;;;;;20.67;10.00;;;13.50;98.10;;;;;;5051999;28;20391;-76
2021/10/26 05:30:24;;;;;;;17.05;10.70;;;13.50;98.10;;;;;;5052907;28;20037;-78
2021/10/26 05:32:49;;;;;;;21.58;11.02;;;13.60;98.10;;;;;;5051729;28;20032;-75
2021/10/26 05:35:15;;;;;;;18.60;10.48;;;13.60;98.10;;;;;;5051081;28;20021;-72
2021/10/26 05:37:40;;;;;;;22.58;11.00;;;13.60;97.90;;;;;;5052852;28;20061;-75
2021/10/26 05:40:06;;;;;;;19.52;10.98;;;13.60;97.90;;;;;;5052973;28;20112;-76
2021/10/26 05:42:32;;;;;;;20.77;11.02;;;13.60;97.80;;;;;;5052556;28;20036;-74
2021/10/26 05:44:58;;;;;;;21.60;11.90;;;13.60;98.00;;;;;;5051348;28;20029;-74
2021/10/26 05:47:24;;;;;;;23.90;12.60;;;13.60;97.90;;;;;;5051164;28;20113;-75
2021/10/26 05:49:49;;;;;;;26.67;12.90;;;13.50;97.90;;;;;;5052294;28;20037;-75
2021/10/26 05:52:15;;;;;;;24.20;13.90;;;13.60;97.90;;;;;;5052771;28;20036;-74
2021/10/26 05:54:40;;;;;;;25.88;12.55;;;13.50;97.80;;;;;;5051495;28;20324;-75
2021/10/26 05:57:06;;;;;;;23.63;13.80;;;13.50;97.90;;;;;;5052005;28;20037;-75
2021/10/26 05:59:32;;;;;;;26.13;15.00;;;13.50;98.10;;;;;;5051979;28;20037;-73
2021/10/26 06:01:57;;;;;;;26.92;13.38;;;13.50;98.10;;;;;;5051915;28;20035;-76
2021/10/26 06:04:24;;;;;;;25.67;14.27;;;13.50;98.20;;;;;;5051876;28;20371;-76
2021/10/26 06:06:49;;;;;;;29.33;16.17;;;13.50;98.10;;;;;;5051136;28;20043;-73
2021/10/26 06:09:16;;;;;;;27.27;15.23;;;13.50;98.10;;;;;;5040838;28;20350;-71
2021/10/26 06:11:42;;;;;;;35.72;17.23;;;13.60;98.00;;;;;;5031722;28;20045;-72
2021/10/26 06:14:08;;;;;;;29.08;15.13;;;13.60;98.10;;;;;;5031906;28;20569;-71
2021/10/26 06:16:36;;;;;;;30.08;14.93;;;13.60;98.10;;;;;;5031958;28;20021;-72
2021/10/26 06:19:02;;;;;;;29.33;14.55;;;13.50;98.20;;;;;;5031215;28;20039;-72
2021/10/26 06:21:28;;;;;;;26.92;15.80;;;13.60;98.20;;;;;;5030470;28;20022;-72
2021/10/26 06:23:55;;;;;;;25.95;14.73;;;13.60;98.10;;;;;;5031258;28;20384;-73
2021/10/26 06:26:21;;;;;;;27.02;14.50;;;13.60;98.10;;;;;;5030221;28;20029;-73
2021/10/26 06:28:47;;;;;;;31.65;14.95;;;13.60;98.20;;;;;;5031432;28;20426;-73
2021/10/26 06:31:12;;;;;;;26.85;16.00;;;13.60;98.20;;;;;;5030994;28;20479;-72
2021/10/26 06:33:38;;;;;;;22.73;14.52;;;13.60;98.20;;;;;;5030610;28;20029;-73
2021/10/26 06:36:04;;;;;;;34.92;18.10;;;13.70;98.20;;;;;;5031408;28;20029;-72
2021/10/26 06:38:29;;;;;;;31.08;16.30;;;13.60;98.10;;;;;;5031135;28;20133;-72
2021/10/26 06:40:55;;;;;;;34.72;16.08;;;13.70;98.10;;;;;;5031357;28;20046;-72
2021/10/26 06:43:21;;;;;;;25.95;15.05;;;13.70;98.00;;;;;;5031747;28;20030;-72
2021/10/26 06:45:47;;;;;;;27.98;15.68;;;13.70;98.10;;;;;;5031581;28;20041;-73
2021/10/26 06:48:12;;;;;;;29.63;16.10;;;13.70;98.10;;;;;;5030396;28;20025;-74
2021/10/26 06:50:38;;;;;;;26.05;15.20;;;13.70;98.00;;;;;;5031236;28;20056;-73
2021/10/26 06:53:04;;;;;;;27.05;15.20;;;13.80;97.90;;;;;;5031065;28;20091;-73
2021/10/26 06:55:29;;;;;;;33.95;20.30;;;13.70;97.70;;;;;;5030938;28;20112;-73
2021/10/26 06:57:56;;;;;;;34.25;15.98;;;13.70;97.90;;;;;;5031505;28;20457;-72
2021/10/26 07:00:23;;;;;;;26.60;15.98;;;13.70;97.90;;;;;;5031001;28;20029;-73
2021/10/26 07:02:51;;;;;;;27.90;14.80;;;13.70;98.10;;;;;;5030100;28;20037;-73
2021/10/26 07:05:21;;;;;;;30.35;16.95;;;13.70;98.20;;;;;;5031263;28;20262;-72
2021/10/26 07:07:47;;;;;;;28.15;16.52;;;13.70;98.00;;;;;;5030875;28;20036;-72
2021/10/26 07:10:13;;;;;;;26.60;16.60;;;13.70;98.00;;;;;;5031319;28;20044;-72
2021/10/26 07:12:40;;;;;;;25.88;16.23;;;13.70;98.00;;;;;;5031278;28;20535;-72
2021/10/26 07:15:08;;;;;;;30.42;17.30;;;13.80;98.10;;;;;;5030891;28;20083;-72
2021/10/26 07:17:38;;;;;;;30.02;15.98;;;13.70;98.00;;;;;;5029899;28;20029;-71
2021/10/26 07:20:07;;;;;;;29.17;16.88;;;13.80;98.00;;;;;;5030861;28;20456;-71
2021/10/26 07:22:36;;;;;;;28.52;16.27;;;13.80;97.90;;;;;;5030787;28;20095;-72
2021/10/26 07:25:06;;;;;;;28.38;17.92;;;13.90;97.90;;;;;;5031428;28;20025;-71
2021/10/26 07:27:33;;;;;;;31.77;17.63;;;13.90;97.90;;;;;;5031102;28;20152;-71
2021/10/26 07:29:59;;;;;;;30.27;18.13;;;14.00;97.90;;;;;;5030829;28;20128;-71
2021/10/26 07:32:25;;;;;;;30.27;16.65;;;13.90;97.80;;;;;;5030857;28;20057;-72
2021/10/26 07:34:50;;;;;;;32.05;17.48;;;14.00;97.80;;;;;;5030967;28;20033;-72
2021/10/26 07:37:20;;;;;;;28.63;17.58;;;13.90;97.80;;;;;;5030189;28;20021;-71
2021/10/26 07:39:47;;;;;;;25.92;16.70;;;13.90;97.80;;;;;;5030646;28;20022;-71
2021/10/26 07:42:15;;;;;;;31.77;17.65;;;14.00;97.80;;;;;;5029844;28;20037;-72
2021/10/26 07:44:42;;;;;;;32.15;18.20;;;13.90;97.70;;;;;;5029424;28;20419;-71
2021/10/26 07:47:08;;;;;;;30.02;18.33;;;14.00;97.70;;;;;;5030955;28;20133;-72
2021/10/26 07:49:34;;;;;;;26.70;18.02;;;14.00;97.70;;;;;;5031671;28;20124;-71
2021/10/26 07:52:01;;;;;;;33.47;18.48;;;14.00;97.70;;;;;;5035165;28;20092;-72
2021/10/26 07:54:27;;;;;;;31.95;18.13;;;14.10;97.70;;;;;;5034181;28;20370;-72
2021/10/26 07:56:53;;;;;;;31.65;17.45;;;14.20;97.50;;;;;;5034448;28;20439;-72
2021/10/26 07:59:20;;;;;;;28.60;18.15;;;14.20;97.50;;;;;;5032973;28;20132;-71
2021/10/26 08:01:47;;;;;;;32.88;17.83;;;14.20;97.30;;;;;;5033943;28;20018;-72
2021/10/26 08:04:14;;;;;;;33.38;18.50;;;14.20;97.40;;;;;;5034360;28;20029;-72
2021/10/26 08:06:49;;;;;;;23.88;17.08;;;14.30;97.30;;;;;;5033786;28;20025;-71
2021/10/26 08:09:19;;;;;;;31.13;18.58;;;14.40;97.20;;;;;;5033895;28;20335;-71
2021/10/26 08:11:45;;;;;;;36.30;19.02;;;14.40;97.10;;;;;;5033717;28;20081;-71
2021/10/26 08:14:11;;;;;;;34.58;19.00;;;14.50;97.00;;;;;;5033794;28;20029;-71
2021/10/26 08:16:37;;;;;;;32.70;17.95;;;14.50;96.90;;;;;;5033745;28;20525;-72
2021/10/26 08:19:04;;;;;;;31.98;17.13;;;14.50;96.80;;;;;;5034553;28;20091;-71
2021/10/26 08:21:31;;;;;;;31.88;17.75;;;14.60;96.70;;;;;;5033703;28;20052;-72
2021/10/26 08:23:57;;;;;;;26.05;16.35;;;14.60;96.80;;;;;;5033628;28;20025;-73
2021/10/26 08:29:07;;;;;;;25.02;14.70;;;15.00;96.50;;;;;;5033857;28;20079;-71
2021/10/26 08:31:45;;;;;;;24.63;15.02;;;15.10;96.20;;;;;;5032561;28;20052;-72
2021/10/26 08:34:18;;;;;;;30.35;18.13;;;15.20;96.20;;;;;;5033022;28;20056;-71
2021/10/26 08:36:45;;;;;;;26.23;16.90;;;15.20;95.90;;;;;;5033516;28;20411;-70
2021/10/26 08:39:12;;;;;;;29.48;15.48;;;15.10;95.90;;;;;;5033504;28;20116;-71
2021/10/26 08:41:43;;;;;;;23.35;15.38;;;15.10;95.80;;;;;;5033412;28;20037;-71
2021/10/26 08:44:09;;;;;;;27.13;14.57;;;15.00;96.00;;;;;;5033396;28;20188;-75
2021/10/26 08:46:35;;;;;;;27.80;15.10;;;15.10;96.50;;;;;;5033509;28;20108;-71
2021/10/26 08:49:01;;;;;;;29.17;15.98;;;15.10;95.90;;;;;;5030745;28;20022;-72
2021/10/26 08:51:27;;;;;;;25.95;13.90;;;15.00;95.90;;;;;;5032188;28;20552;-72
2021/10/26 08:53:54;;;;;;;27.80;14.95;;;14.90;95.90;;;;;;5033218;28;20029;-72
2021/10/26 08:56:21;;;;;;;26.13;15.55;;;14.90;96.00;;;;;;5032992;28;20025;-73
2021/10/26 08:58:48;;;;;;;30.02;16.80;;;14.80;96.00;;;;;;5033207;28;20100;-72
2021/10/26 09:01:15;;;;;;;26.90;15.15;;;14.90;96.20;;;;;;5033394;28;20017;-72
2021/10/26 09:03:40;;;;;;;28.63;15.63;;;14.80;95.90;;;;;;5032998;28;20105;-72
2021/10/26 09:06:10;;;;;;;27.05;14.18;;;14.80;96.00;;;;;;5031868;28;20128;-72
2021/10/26 09:08:36;;;;;;;24.17;14.02;;;14.70;96.00;;;;;;5032854;28;20037;-70
2021/10/26 09:17:10;;;;;;;20.38;13.65;;;14.80;95.90;;;;;;5053250;28;20086;-70
2021/10/26 09:19:38;;;;;;;28.50;13.90;;;14.70;95.80;;;;;;5051704;28;20032;-72
2021/10/26 09:22:05;;;;;;;24.75;13.98;;;14.80;95.70;;;;;;5053420;28;20074;-71
2021/10/26 09:24:33;;;;;;;24.10;13.35;;;14.80;95.70;;;;;;5051480;28;20034;-71
2021/10/26 09:27:05;;;;;;;21.70;12.73;;;14.80;95.60;;;;;;5052930;28;20344;-71
2021/10/26 09:29:39;;;;;;;23.50;12.68;;;14.80;95.60;;;;;;5052750;28;20036;-71
2021/10/26 09:32:06;;;;;;;22.17;11.75;;;14.80;95.40;;;;;;5051482;28;20040;-71
2021/10/26 09:34:48;;;;;;;20.70;11.73;;;14.90;95.40;;;;;;5052627;28;20040;-71
2021/10/26 09:37:15;;;;;;;22.05;11.43;;;14.90;95.40;;;;;;5052990;28;20043;-71
2021/10/26 09:39:58;;;;;;;18.92;11.18;;;15.00;95.10;;;;;;5052420;28;20108;-71
2021/10/26 09:42:24;;;;;;;20.42;9.57;;;14.90;94.90;;;;;;5052593;28;20040;-71
2021/10/26 09:44:54;;;;;;;17.48;10.77;;;15.10;94.90;;;;;;5052619;28;20223;-71
2021/10/26 09:47:33;;;;;;;23.45;10.50;;;15.20;95.00;;;;;;5051300;28;20048;-71
2021/10/26 09:50:01;;;;;;;13.98;8.38;;;15.30;94.60;;;;;;5052355;28;20094;-71
2021/10/26 09:52:29;;;;;;;20.52;8.50;;;15.70;94.60;;;;;;5052198;28;20034;-70
2021/10/26 09:55:21;;;;;;;13.65;8.45;;;15.80;93.90;;;;;;5051563;28;20445;-70
2021/10/26 09:57:54;;;;;;;18.58;8.35;;;15.80;93.60;;;;;;5051226;28;20057;-69
2021/10/26 10:00:24;;;;;;;15.38;7.88;;;16.10;93.70;;;;;;5052088;28;20483;-69
2021/10/26 10:02:57;;;;;;;13.10;7.55;;;16.10;93.10;;;;;;5052255;28;20036;-70
2021/10/26 10:05:24;;;;;;;22.65;7.28;;;16.20;93.00;;;;;;5051989;28;20086;-70
2021/10/26 10:07:50;;;;;;;13.27;7.13;;;16.70;92.70;;;;;;5051628;28;20049;-70
2021/10/26 10:10:16;;;;;;;12.80;7.20;;;17.70;92.70;;;;;;5052147;28;20067;-69
2021/10/26 10:12:45;;;;;;;10.38;6.13;;;18.10;90.50;;;;;;5051049;28;20045;-70
2021/10/26 10:15:12;;;;;;;12.63;6.32;;;18.20;90.30;;;;;;5050510;28;20132;-70
2021/10/26 10:17:37;;;;;;;15.70;6.60;;;17.90;90.30;;;;;;5051935;28;20048;-71
2021/10/26 10:20:09;;;;;;;14.18;5.70;;;18.10;90.40;;;;;;5051647;28;20025;-70
2021/10/26 10:22:37;;;;;;;8.88;5.45;;;18.30;90.20;;;;;;5051560;28;20032;-70
2021/10/26 10:25:05;;;;;;;14.05;5.60;;;19.00;90.10;;;;;;5051974;28;20095;-70
2021/10/26 10:27:34;;;;;;;9.77;5.00;;;19.50;87.80;;;;;;5051748;28;20029;-71
2021/10/26 10:30:01;;;;;;;10.27;4.40;;;19.90;84.20;;;;;;5051477;28;20534;-71
2021/10/26 10:32:31;;;;;;;9.55;4.15;;;20.50;84.80;;;;;;5051744;28;20029;-68
2021/10/26 10:34:58;;;;;;;10.00;4.57;;;21.20;81.70;;;;;;5051979;28;20025;-68
2021/10/26 10:37:29;;;;;;;11.07;4.28;;;21.20;80.70;;;;;;5051695;28;20082;-69
2021/10/26 10:39:59;;;;;;;13.63;4.95;;;21.00;80.60;;;;;;5051478;28;20116;-69
2021/10/26 10:42:26;;;;;;;12.60;4.60;;;20.80;80.50;;;;;;5051295;28;20029;-70
2021/10/26 10:45:15;;;;;;;10.60;5.25;;;20.60;79.50;;;;;;5051456;28;20467;-70
2021/10/26 10:47:42;;;;;;;11.40;4.85;;;20.00;80.40;;;;;;5051031;28;20041;-74
2021/10/26 10:50:23;;;;;;;12.80;4.80;;;19.50;81.50;;;;;;5051058;28;20059;-69
2021/10/26 10:53:07;;;;;;;12.52;5.32;;;18.70;82.80;;;;;;5049908;28;20265;-73
2021/10/26 10:55:34;;;;;;;12.15;5.82;;;18.50;83.50;;;;;;5049740;28;20029;-69
2021/10/26 10:58:22;;;;;;;9.90;5.88;;;18.50;84.50;;;;;;5051419;28;20455;-70
2021/10/26 11:00:49;;;;;;;14.65;7.32;;;18.30;84.20;;;;;;5050950;28;20037;-69
2021/10/26 11:03:32;;;;;;;13.27;7.60;;;18.20;84.30;;;;;;5050785;28;20383;-69
2021/10/26 11:06:00;;;;;;;10.70;6.03;;;18.40;84.70;;;;;;5037748;28;20095;-70
2021/10/26 11:08:42;;;;;;;16.10;6.85;;;18.80;83.90;;;;;;5031093;28;20037;-68
2021/10/26 11:11:08;;;;;;;11.93;6.38;;;18.90;83.50;;;;;;5030751;28;20040;-70
2021/10/26 11:13:35;;;;;;;13.05;6.35;;;19.20;82.60;;;;;;5030784;28;20570;-70
2021/10/26 11:16:06;;;;;;;10.75;6.38;;;19.00;82.40;;;;;;5031261;28;20025;-69
2021/10/26 11:18:49;;;;;;;15.73;6.80;;;18.50;83.40;;;;;;5030675;28;20034;-69
2021/10/26 11:21:24;;;;;;;12.63;7.10;;;18.70;83.90;;;;;;5030684;28;20116;-69
2021/10/26 11:24:10;;;;;;;12.23;6.72;;;18.70;83.30;;;;;;5031032;28;20467;-69
2021/10/26 11:26:43;;;;;;;11.32;6.45;;;19.00;82.80;;;;;;5034548;28;20051;-69
2021/10/26 11:29:13;;;;;;;9.15;5.97;;;19.10;81.50;;;;;;5034609;28;20154;-69
2021/10/26 11:31:48;;;;;;;11.98;6.63;;;18.80;82.50;;;;;;5034977;28;20026;-69
2021/10/26 11:34:19;;;;;;;16.33;7.05;;;19.00;83.00;;;;;;5034854;28;20022;-69
2021/10/26 11:36:45;;;;;;;10.98;6.00;;;18.70;83.50;;;;;;5034806;28;20052;-69
2021/10/26 11:39:15;;;;;;;13.77;5.93;;;18.60;83.80;;;;;;5034870;28;20471;-70
2021/10/26 11:41:43;;;;;;;13.30;5.75;;;18.60;82.20;;;;;;5034540;28;20030;-71
2021/10/26 11:44:16;;;;;;;;;;;18.20;82.40;;;;;;5034913;28;20037;-71
2021/10/26 11:46:45;;;;;;;13.35;5.13;;;18.10;82.30;;;;;;5034200;28;19944;-71
2021/10/26 11:49:21;;;;;;;11.73;5.20;;;18.10;83.40;;;;;;5035039;28;20017;-71
2021/10/26 11:51:49;;;;;;;11.05;6.35;;;18.20;83.50;;;;;;5034457;28;20611;-70
2021/10/26 11:54:24;;;;;;;10.52;5.85;;;18.40;83.30;;;;;;5034547;28;20026;-72
2021/10/26 11:56:53;;;;;;;10.73;5.40;;;18.30;82.70;;;;;;5033289;28;20064;-70
2021/10/26 11:59:25;;;;;;;10.27;5.45;;;18.10;82.90;;;;;;5034086;28;20045;-71
2021/10/26 12:01:56;;;;;;;12.68;4.68;;;18.40;83.20;;;;;;5033320;28;20034;-71
2021/10/26 12:04:39;;;;;;;12.05;4.50;;;18.60;82.10;;;;;;5034618;28;20013;-70
2021/10/26 12:07:11;;;;;;;11.82;4.18;;;18.50;81.70;;;;;;5034650;28;20103;-71
2021/10/26 12:09:45;;;;;;;9.48;4.20;;;18.50;81.40;;;;;;5034122;28;20113;-70
2021/10/26 12:12:13;;;;;;;10.55;4.22;;;18.30;81.10;;;;;;5032449;28;20188;-70
2021/10/26 12:14:41;;;;;;;10.80;4.53;;;18.00;81.50;;;;;;5034060;28;20042;-72
2021/10/26 12:17:22;;;;;;;10.32;3.72;;;18.00;81.50;;;;;;5034041;28;20037;-71
2021/10/26 12:19:52;;;;;;;10.00;4.38;;;17.80;81.30;;;;;;5033786;28;20259;-71
2021/10/26 12:22:25;;;;;;;9.23;4.65;;;17.60;82.00;;;;;;5034227;28;20036;-72
2021/10/26 12:25:42;;;;;;;11.65;4.80;;;17.70;81.90;;;;;;5033654;28;20438;-72
2021/10/26 12:28:05;;;;;;;9.15;3.85;;;17.70;82.10;;;;;;5031433;28;20376;-71
2021/10/26 12:30:39;;;;;;;8.93;3.85;;;17.60;82.20;;;;;;5033555;28;20459;-71
2021/10/26 12:33:07;;;;;;;7.95;3.97;;;17.60;82.50;;;;;;5033670;28;20033;-70
2021/10/26 12:35:41;;;;;;;;;;;17.40;83.30;;;;;;5033575;28;20041;-71
2021/10/26 12:38:29;;;;;;;11.77;3.97;;;17.30;84.20;;;;;;5033501;28;19920;-71
2021/10/26 12:41:04;;;;;;;13.98;4.35;;;17.20;84.30;;;;;;5033539;28;20255;-71
2021/10/26 12:43:30;;;;;;;9.35;4.68;;;17.20;84.50;;;;;;5033545;28;20033;-71